createdAt,value
2023-04-09T00:01:24.705Z,10.82
2023-04-09T00:04:26.615Z,10.77
2023-04-09T00:07:28.531Z,8.57
2023-04-09T00:10:30.585Z,8.68
2023-04-09T00:13:39.345Z,7.82
2023-04-09T00:16:41.706Z,7.43
2023-04-09T00:19:43.688Z,9.67
2023-04-09T00:22:45.571Z,9.23
2023-04-09T00:25:47.419Z,8.77
2023-04-09T00:28:49.661Z,10.70
2023-04-09T00:31:51.956Z,11.52
2023-04-09T00:34:53.799Z,11.43
2023-04-09T00:37:55.690Z,10.10
2023-04-09T00:40:57.641Z,11.80
2023-04-09T00:43:59.492Z,10.60
2023-04-09T00:47:01.462Z,10.57
2023-04-09T00:50:03.820Z,9.90
2023-04-09T00:53:06.305Z,8.32
2023-04-09T00:56:08.238Z,10.77
2023-04-09T00:59:10.396Z,11.67
2023-04-09T01:02:12.720Z,10.70
2023-04-09T01:05:15.773Z,11.75
2023-04-09T01:08:49.144Z,8.98
2023-04-09T01:12:07.627Z,12.82
2023-04-09T01:15:13.892Z,9.27
2023-04-09T01:18:31.191Z,12.95
2023-04-09T01:21:34.417Z,10.32
2023-04-09T01:24:42.772Z,10.05
2023-04-09T01:28:06.149Z,12.10
2023-04-09T01:31:13.587Z,9.38
2023-04-09T01:34:16.938Z,13.52
2023-04-09T01:37:20.623Z,12.40
2023-04-09T01:40:22.939Z,13.40
2023-04-09T01:43:27.534Z,12.00
2023-04-09T01:46:30.616Z,12.60
2023-04-09T01:49:33.303Z,10.60
2023-04-09T01:52:35.465Z,11.85
2023-04-09T01:55:37.421Z,10.23
2023-04-09T01:58:39.298Z,11.90
2023-04-09T02:01:48.316Z,9.05
2023-04-09T02:04:54.383Z,8.93
2023-04-09T02:07:59.916Z,12.07
2023-04-09T02:11:05.040Z,13.02
2023-04-09T02:14:09.032Z,10.70
2023-04-09T02:17:11.631Z,13.27
2023-04-09T02:20:18.773Z,10.82
2023-04-09T02:23:21.668Z,9.25
2023-04-09T02:26:24.351Z,14.25
2023-04-09T02:29:26.212Z,11.00
2023-04-09T02:32:28.217Z,13.60
2023-04-09T02:35:30.356Z,12.00
2023-04-09T02:38:32.762Z,9.70
2023-04-09T02:41:34.565Z,10.93
2023-04-09T02:44:36.569Z,13.07
2023-04-09T02:47:38.958Z,12.48
2023-04-09T02:50:41.418Z,10.55
2023-04-09T02:53:43.396Z,11.20
2023-04-09T02:56:45.344Z,11.50
2023-04-09T02:59:47.379Z,14.23
2023-04-09T03:02:50.924Z,15.25
2023-04-09T03:05:53.098Z,13.05
2023-04-09T03:08:54.997Z,13.43
2023-04-09T03:15:00.484Z,10.18
2023-04-09T03:18:02.490Z,11.35
2023-04-09T03:21:08.700Z,12.77
2023-04-09T03:24:13.563Z,12.73
2023-04-09T03:27:16.480Z,13.32
2023-04-09T03:30:18.600Z,11.35
2023-04-09T03:33:20.790Z,12.02
2023-04-09T03:36:28.246Z,10.68
2023-04-09T03:39:37.967Z,12.70
2023-04-09T03:42:39.884Z,14.57
2023-04-09T03:45:43.343Z,13.27
2023-04-09T03:49:00.784Z,13.20
2023-04-09T03:52:11.510Z,11.70
2023-04-09T03:55:17.418Z,14.07
2023-04-09T03:58:19.763Z,15.48
2023-04-09T04:04:32.194Z,14.32
2023-04-09T04:07:34.095Z,12.57
2023-04-09T04:10:42.034Z,11.68
2023-04-09T04:13:45.602Z,15.15
2023-04-09T04:16:47.545Z,15.90
2023-04-09T04:19:53.551Z,12.48
2023-04-09T04:22:57.835Z,13.70
2023-04-09T04:26:01.546Z,12.73
2023-04-09T04:29:08.873Z,12.68
2023-04-09T04:32:29.986Z,12.52
2023-04-09T04:35:36.095Z,13.73
2023-04-09T04:38:41.800Z,19.60
2023-04-09T04:41:50.717Z,12.57
2023-04-09T04:44:58.885Z,13.05
2023-04-09T04:48:11.015Z,12.30
2023-04-09T04:51:12.939Z,13.32
2023-04-09T04:54:20.769Z,11.82
2023-04-09T04:57:26.800Z,13.48
2023-04-09T05:00:29.793Z,13.68
2023-04-09T05:03:36.148Z,13.88
2023-04-09T05:06:58.031Z,12.15
2023-04-09T05:13:09.379Z,13.23
2023-04-09T05:16:20.104Z,13.40
2023-04-09T05:19:28.562Z,12.57
2023-04-09T05:22:36.984Z,12.05
2023-04-09T05:25:40.036Z,11.73
2023-04-09T05:28:47.608Z,15.13
2023-04-09T05:31:53.581Z,13.35
2023-04-09T05:35:05.154Z,12.93
2023-04-09T05:38:13.672Z,13.70
2023-04-09T05:41:17.999Z,17.77
2023-04-09T05:44:30.636Z,10.82
2023-04-09T05:47:47.282Z,13.43
2023-04-09T05:50:55.451Z,14.48
2023-04-09T05:54:01.336Z,14.63
2023-04-09T05:57:08.194Z,14.82
2023-04-09T06:00:13.593Z,14.00
2023-04-09T06:03:18.765Z,11.15
2023-04-09T06:06:20.956Z,14.00
2023-04-09T06:09:22.871Z,16.58
2023-04-09T06:12:24.758Z,15.15
2023-04-09T06:15:26.848Z,16.63
2023-04-09T06:18:29.650Z,15.52
2023-04-09T06:21:31.497Z,16.93
2023-04-09T06:24:33.423Z,16.27
2023-04-09T06:27:35.582Z,13.93
2023-04-09T06:30:37.496Z,12.48
2023-04-09T06:33:39.400Z,13.47
2023-04-09T06:36:41.425Z,16.80
2023-04-09T06:39:47.716Z,12.93
2023-04-09T06:42:59.930Z,16.48
2023-04-09T06:46:05.735Z,14.70
2023-04-09T06:49:07.631Z,13.27
2023-04-09T06:52:09.589Z,17.77
2023-04-09T06:55:11.654Z,17.05
2023-04-09T06:58:13.547Z,16.00
2023-04-09T07:01:17.442Z,14.43
2023-04-09T07:04:19.478Z,12.60
2023-04-09T07:07:24.267Z,11.90
2023-04-09T07:10:27.321Z,14.80
2023-04-09T07:13:29.707Z,12.17
2023-04-09T07:16:31.800Z,13.00
2023-04-09T07:19:33.764Z,11.32
2023-04-09T07:22:36.462Z,15.13
2023-04-09T07:28:40.622Z,13.75
2023-04-09T07:31:42.626Z,13.73
2023-04-09T07:34:45.545Z,12.15
2023-04-09T07:37:47.407Z,12.55
2023-04-09T07:40:49.410Z,14.87
2023-04-09T07:43:51.672Z,13.07
2023-04-09T07:46:53.540Z,14.25
2023-04-09T07:49:55.499Z,16.10
2023-04-09T07:52:57.457Z,11.13
2023-04-09T07:55:59.304Z,13.67
2023-04-09T07:59:01.157Z,15.70
2023-04-09T08:02:03.304Z,13.10
2023-04-09T08:05:05.934Z,13.95
2023-04-09T08:08:07.906Z,13.57
2023-04-09T08:11:09.780Z,14.30
2023-04-09T08:14:16.315Z,11.23
2023-04-09T08:17:18.225Z,15.43
2023-04-09T08:20:20.204Z,11.77
2023-04-09T08:23:22.125Z,12.18
2023-04-09T08:26:24.045Z,12.13
2023-04-09T08:29:27.040Z,13.05
2023-04-09T08:32:29.355Z,12.80
2023-04-09T08:35:31.668Z,12.85
2023-04-09T08:38:33.468Z,15.02
2023-04-09T08:41:41.157Z,13.67
2023-04-09T08:44:43.850Z,11.43
2023-04-09T08:47:48.053Z,10.43
2023-04-09T08:50:50.499Z,19.75
2023-04-09T08:53:55.447Z,11.90
2023-04-09T08:56:57.652Z,13.43
2023-04-09T08:59:59.523Z,16.63
2023-04-09T09:03:09.483Z,14.25
2023-04-09T09:06:22.593Z,13.63
2023-04-09T09:09:26.836Z,14.85
2023-04-09T09:12:36.221Z,17.42
2023-04-09T09:15:38.120Z,8.25
2023-04-09T09:18:41.755Z,13.80
2023-04-09T09:21:43.784Z,9.82
2023-04-09T09:24:50.290Z,13.18
2023-04-09T09:27:53.489Z,8.90
2023-04-09T09:30:55.487Z,14.02
2023-04-09T09:33:57.506Z,12.50
2023-04-09T09:36:59.464Z,16.08
2023-04-09T09:40:01.627Z,9.03
2023-04-09T09:43:03.689Z,8.45
2023-04-09T09:46:06.280Z,9.88
2023-04-09T09:49:09.584Z,8.68
2023-04-09T09:52:11.670Z,8.65
2023-04-09T09:55:18.113Z,10.93
2023-04-09T09:58:27.919Z,6.70
2023-04-09T10:01:30.365Z,9.13
2023-04-09T10:04:38.311Z,9.90
2023-04-09T10:07:41.627Z,10.18
2023-04-09T10:10:44.024Z,9.52
2023-04-09T10:13:59.471Z,9.95
2023-04-09T10:17:04.122Z,7.93
2023-04-09T10:20:23.063Z,8.27
2023-04-09T10:23:34.128Z,10.50
2023-04-09T10:26:40.328Z,11.00
2023-04-09T10:29:47.436Z,16.13
2023-04-09T10:32:49.375Z,12.02
2023-04-09T10:35:51.825Z,15.25
2023-04-09T10:38:53.968Z,13.25
2023-04-09T10:41:59.682Z,11.27
2023-04-09T10:45:15.491Z,10.88
2023-04-09T10:48:19.554Z,50.60
2023-04-09T10:51:21.482Z,12.23
2023-04-09T10:54:35.494Z,11.60
2023-04-09T10:57:37.635Z,17.60
2023-04-09T11:00:44.248Z,12.00
2023-04-09T11:04:08.962Z,8.70
2023-04-09T11:07:15.950Z,10.30
2023-04-09T11:10:18.798Z,9.52
2023-04-09T11:13:22.032Z,11.55
2023-04-09T11:16:26.584Z,11.60
2023-04-09T11:19:30.127Z,9.05
2023-04-09T11:22:31.987Z,10.10
2023-04-09T11:25:35.315Z,11.63
2023-04-09T11:28:37.298Z,10.80
2023-04-09T11:31:39.314Z,13.05
2023-04-09T11:34:41.142Z,11.38
2023-04-09T11:37:44.357Z,10.07
2023-04-09T11:40:49.408Z,9.32
2023-04-09T11:43:52.226Z,9.07
2023-04-09T11:46:54.631Z,8.15
2023-04-09T11:49:56.730Z,9.38
2023-04-09T11:52:58.933Z,8.52
2023-04-09T11:56:01.704Z,11.15
2023-04-09T12:03:05.490Z,10.25
2023-04-09T12:09:13.745Z,11.07
2023-04-09T12:12:20.507Z,10.20
2023-04-09T12:15:22.425Z,9.88
2023-04-09T12:18:24.873Z,10.20
2023-04-09T12:21:27.578Z,9.63
2023-04-09T12:24:29.469Z,8.00
2023-04-09T12:27:33.478Z,16.40
2023-04-09T12:30:36.324Z,12.38
2023-04-09T12:33:40.494Z,10.57
2023-04-09T12:36:42.594Z,9.60
2023-04-09T12:39:44.602Z,10.13
2023-04-09T12:42:47.471Z,18.95
2023-04-09T12:45:49.469Z,12.48
2023-04-09T12:48:51.562Z,16.50
2023-04-09T12:51:53.402Z,28.02
2023-04-09T12:54:55.632Z,21.05
2023-04-09T12:57:58.364Z,19.50
2023-04-09T13:01:01.021Z,12.68
2023-04-09T13:07:05.146Z,9.60
2023-04-09T13:10:07.481Z,10.75
2023-04-09T13:13:12.205Z,13.43
2023-04-09T13:16:14.081Z,15.43
2023-04-09T13:19:15.967Z,31.03
2023-04-09T13:22:18.876Z,91.07
2023-04-09T13:25:20.963Z,36.97
2023-04-09T13:28:22.856Z,40.95
2023-04-09T13:31:25.270Z,12.68
2023-04-09T13:37:29.139Z,38.22
2023-04-09T13:40:31.213Z,8.27
2023-04-09T13:43:33.103Z,12.88
2023-04-09T13:46:35.024Z,10.60
2023-04-09T13:49:36.953Z,9.70
2023-04-09T13:52:38.786Z,11.68
2023-04-09T13:55:40.851Z,12.32
2023-04-09T13:58:43.814Z,24.77
2023-04-09T14:01:45.882Z,11.82
2023-04-09T14:04:47.897Z,11.25
2023-04-09T14:07:49.869Z,11.63
2023-04-09T14:10:51.723Z,10.27
2023-04-09T14:13:53.824Z,9.27
2023-04-09T14:16:56.015Z,8.07
2023-04-09T14:19:59.175Z,9.45
2023-04-09T14:23:01.277Z,10.52
2023-04-09T14:26:04.370Z,11.40
2023-04-09T14:29:06.200Z,13.82
2023-04-09T14:32:08.266Z,13.48
2023-04-09T14:35:10.489Z,20.30
2023-04-09T14:38:12.949Z,10.38
2023-04-09T14:41:14.924Z,14.45
2023-04-09T14:44:16.801Z,13.77
2023-04-09T14:47:18.641Z,20.55
2023-04-09T14:50:21.252Z,19.75
2023-04-09T14:56:25.559Z,17.23
2023-04-09T14:59:27.628Z,9.73
2023-04-09T15:02:29.648Z,10.63
2023-04-09T15:05:31.689Z,10.32
2023-04-09T15:08:33.704Z,8.68
2023-04-09T15:11:35.668Z,9.25
2023-04-09T15:14:37.589Z,9.25
2023-04-09T15:17:39.763Z,24.83
2023-04-09T15:20:43.487Z,13.23
2023-04-09T15:23:46.244Z,11.77
2023-04-09T15:29:50.032Z,14.35
2023-04-09T15:32:52.819Z,13.90
2023-04-09T15:35:54.823Z,16.63
2023-04-09T15:38:56.659Z,15.70
2023-04-09T15:41:58.677Z,14.80
2023-04-09T15:45:00.677Z,14.38
2023-04-09T15:48:02.613Z,12.98
2023-04-09T15:51:08.063Z,13.75
2023-04-09T15:54:09.876Z,15.40
2023-04-09T15:57:11.847Z,12.10
2023-04-09T16:00:14.124Z,11.95
2023-04-09T16:03:16.320Z,12.00
2023-04-09T16:06:19.809Z,13.25
2023-04-09T16:09:21.777Z,12.52
2023-04-09T16:12:24.896Z,13.68
2023-04-09T16:15:27.212Z,10.68
2023-04-09T16:18:29.304Z,11.88
2023-04-09T16:21:31.252Z,13.93
2023-04-09T16:24:33.250Z,13.63
2023-04-09T16:27:35.327Z,23.13
2023-04-09T16:30:37.746Z,20.88
2023-04-09T16:33:39.746Z,17.73
2023-04-09T16:36:41.780Z,15.52
2023-04-09T16:39:43.618Z,12.68
2023-04-09T16:42:45.458Z,14.07
2023-04-09T16:45:47.395Z,13.70
2023-04-09T16:48:49.199Z,16.02
2023-04-09T16:51:53.220Z,21.67
2023-04-09T16:54:55.641Z,23.33
2023-04-09T16:57:57.446Z,21.90
2023-04-09T17:00:59.405Z,21.00
2023-04-09T17:04:03.195Z,19.88
2023-04-09T17:07:05.214Z,19.80
2023-04-09T17:10:07.802Z,26.80
2023-04-09T17:13:09.920Z,56.38
2023-04-09T17:16:11.992Z,70.78
2023-04-09T17:19:13.981Z,42.28
2023-04-09T17:22:17.903Z,52.67
2023-04-09T17:25:20.710Z,76.18
2023-04-09T17:28:22.691Z,58.60
2023-04-09T17:31:24.668Z,61.47
2023-04-09T17:34:26.664Z,57.13
2023-04-09T17:37:29.262Z,48.00
2023-04-09T17:40:32.047Z,58.42
2023-04-09T17:46:36.684Z,45.75
2023-04-09T17:49:39.355Z,74.53
2023-04-09T17:52:41.248Z,86.10
2023-04-09T17:55:50.983Z,67.93
2023-04-09T17:58:53.608Z,72.78
2023-04-09T18:05:02.811Z,66.82
2023-04-09T18:08:05.218Z,72.05
2023-04-09T18:11:11.850Z,69.75
2023-04-09T18:14:16.182Z,76.30
2023-04-09T18:17:18.057Z,70.82
2023-04-09T18:20:20.077Z,55.03
2023-04-09T18:23:22.030Z,61.40
2023-04-09T18:26:24.063Z,64.67
2023-04-09T18:29:27.591Z,68.88
2023-04-09T18:32:29.861Z,60.92
2023-04-09T18:35:31.860Z,67.63
2023-04-09T18:38:34.741Z,67.80
2023-04-09T18:41:36.614Z,61.47
2023-04-09T18:44:38.798Z,62.60
2023-04-09T18:47:40.958Z,60.55
2023-04-09T18:50:42.866Z,61.30
2023-04-09T18:53:48.153Z,58.77
2023-04-09T18:56:50.053Z,61.17
2023-04-09T18:59:51.957Z,50.33
2023-04-09T19:02:54.252Z,55.90
2023-04-09T19:05:56.447Z,51.53
2023-04-09T19:08:59.103Z,58.33
2023-04-09T19:12:02.069Z,49.50
2023-04-09T19:15:04.946Z,50.13
2023-04-09T19:21:09.136Z,63.38
2023-04-09T19:24:11.419Z,67.53
2023-04-09T19:27:14.159Z,54.45
2023-04-09T19:30:16.199Z,44.88
2023-04-09T19:33:22.209Z,52.97
2023-04-09T19:36:24.303Z,60.35
2023-04-09T19:39:26.215Z,59.85
2023-04-09T19:42:28.878Z,58.17
2023-04-09T19:45:31.732Z,50.65
2023-04-09T19:48:35.520Z,52.03
2023-04-09T19:51:37.513Z,46.28
2023-04-09T19:54:39.409Z,97.00
2023-04-09T19:57:43.658Z,36.95
2023-04-09T20:00:45.704Z,36.42
2023-04-09T20:03:48.219Z,29.63
2023-04-09T20:06:51.772Z,30.73
2023-04-09T20:09:53.654Z,26.88
2023-04-09T20:12:55.688Z,21.38
2023-04-09T20:15:57.849Z,21.60
2023-04-09T20:18:59.717Z,15.90
2023-04-09T20:22:02.247Z,15.77
2023-04-09T20:25:04.306Z,13.85
2023-04-09T20:28:06.507Z,16.50
2023-04-09T20:31:08.404Z,11.20
2023-04-09T20:34:10.560Z,12.33
2023-04-09T20:37:12.523Z,13.07
2023-04-09T20:40:14.475Z,12.00
2023-04-09T20:43:16.724Z,10.50
2023-04-09T20:46:18.728Z,9.18
2023-04-09T20:49:20.767Z,10.67
2023-04-09T20:52:23.543Z,12.15
2023-04-09T20:55:26.580Z,11.27
2023-04-09T20:58:28.578Z,10.45
2023-04-09T21:01:30.684Z,12.30
2023-04-09T21:04:32.645Z,10.60
2023-04-09T21:07:34.579Z,9.70
2023-04-09T21:10:36.533Z,9.17
2023-04-09T21:13:53.053Z,6.63
2023-04-09T21:16:56.809Z,7.72
2023-04-09T21:19:58.796Z,7.18
2023-04-09T21:23:00.798Z,6.20
2023-04-09T21:26:04.789Z,7.40
2023-04-09T21:29:06.627Z,6.47
2023-04-09T21:32:08.575Z,6.10
2023-04-09T21:35:10.538Z,7.00
2023-04-09T21:38:12.467Z,6.27
2023-04-09T21:41:14.301Z,6.77
2023-04-09T21:44:16.203Z,6.22
2023-04-09T21:47:18.182Z,5.65
2023-04-09T21:50:20.142Z,5.70
2023-04-09T21:53:22.034Z,5.73
2023-04-09T21:56:23.931Z,6.32
2023-04-09T21:59:25.834Z,5.85
2023-04-09T22:02:28.414Z,6.28
2023-04-09T22:05:31.973Z,5.50
2023-04-09T22:08:35.366Z,5.18
2023-04-09T22:11:41.587Z,6.22
2023-04-09T22:14:43.459Z,5.10
2023-04-09T22:17:45.679Z,4.80
2023-04-09T22:20:47.658Z,6.32
2023-04-09T22:23:50.637Z,5.30
2023-04-09T22:26:53.557Z,4.82
2023-04-09T22:32:57.316Z,5.30
2023-04-09T22:35:59.636Z,6.23
2023-04-09T22:39:01.659Z,4.88
2023-04-09T22:42:03.868Z,5.10
2023-04-09T22:45:06.216Z,5.03
2023-04-09T22:48:08.506Z,5.07
2023-04-09T22:51:10.378Z,5.88
2023-04-09T22:54:12.334Z,4.53
2023-04-09T22:57:14.274Z,5.43
2023-04-09T23:00:16.426Z,5.28
2023-04-09T23:03:18.473Z,3.88
2023-04-09T23:06:20.815Z,5.82
2023-04-09T23:09:22.828Z,6.60
2023-04-09T23:12:24.722Z,5.53
2023-04-09T23:15:27.182Z,5.87
2023-04-09T23:18:29.082Z,4.53
2023-04-09T23:21:31.810Z,4.05
2023-04-09T23:24:33.664Z,7.15
2023-04-09T23:27:35.598Z,4.60
2023-04-09T23:30:37.425Z,4.67
2023-04-09T23:33:39.302Z,4.38
2023-04-09T23:36:41.253Z,4.30
2023-04-09T23:39:43.634Z,3.93
2023-04-09T23:42:47.956Z,5.35
2023-04-09T23:45:50.672Z,4.10
2023-04-09T23:48:52.668Z,4.57
2023-04-09T23:51:54.618Z,4.43
2023-04-09T23:54:56.484Z,4.50
2023-04-09T23:57:58.333Z,7.15
